Time;durP1;ratioP1;P1;durP2;ratioP2;P2;SDS_P1;SDS_P2;PMS_P1;PMS_P2;Temp;Humidity;BMP_temperature;BMP_pressure;BME280_temperature;BME280_humidity;BME280_pressure;Samples;Min_cycle;Max_cycle;Signal;HPM_P1;HPM_P2
2022/07/25 00:00:08;;;;;;;16.60;11.88;;;17.70;99.90;;;;;;4974534;28;20035;-56
2022/07/25 00:02:34;;;;;;;20.20;13.15;;;17.70;99.90;;;;;;4974470;28;20094;-57
2022/07/25 00:05:00;;;;;;;14.02;11.50;;;17.60;99.90;;;;;;4974311;28;20035;-56
2022/07/25 00:07:26;;;;;;;13.93;12.18;;;17.60;99.90;;;;;;4974136;28;20414;-53
2022/07/25 00:09:52;;;;;;;19.63;13.60;;;17.60;99.90;;;;;;4974252;28;20062;-53
2022/07/25 00:12:18;;;;;;;17.83;12.73;;;17.60;99.90;;;;;;4974288;28;20078;-53
2022/07/25 00:14:44;;;;;;;14.23;12.82;;;17.60;99.90;;;;;;4974209;28;20023;-53
2022/07/25 00:17:10;;;;;;;17.85;12.82;;;17.60;99.90;;;;;;4974491;28;20026;-54
2022/07/25 00:19:35;;;;;;;15.25;12.65;;;17.60;99.90;;;;;;4974099;28;20031;-57
2022/07/25 00:22:01;;;;;;;14.23;12.65;;;17.60;99.90;;;;;;4973885;28;20459;-54
2022/07/25 00:24:27;;;;;;;15.23;13.65;;;17.60;99.90;;;;;;4973655;28;20037;-54
2022/07/25 00:26:53;;;;;;;17.52;12.18;;;17.50;99.90;;;;;;4973025;28;20058;-53
2022/07/25 00:29:18;;;;;;;16.60;13.50;;;17.50;99.90;;;;;;4973771;28;20034;-52
2022/07/25 00:31:44;;;;;;;19.45;14.18;;;17.50;99.90;;;;;;4973766;28;20069;-53
2022/07/25 00:34:10;;;;;;;16.00;13.18;;;17.40;99.90;;;;;;4973873;28;20423;-53
2022/07/25 00:36:35;;;;;;;18.98;13.45;;;17.40;99.90;;;;;;4974112;28;20114;-53
2022/07/25 00:39:02;;;;;;;15.70;12.82;;;17.50;99.90;;;;;;4973513;28;20466;-55
2022/07/25 00:41:27;;;;;;;14.88;13.30;;;17.40;99.90;;;;;;4973610;28;20504;-55
2022/07/25 00:43:53;;;;;;;19.88;14.00;;;17.30;99.90;;;;;;4973864;28;20027;-55
2022/07/25 00:46:19;;;;;;;21.00;13.23;;;17.20;99.90;;;;;;4973568;28;20050;-57
2022/07/25 00:48:46;;;;;;;19.27;14.38;;;17.20;99.90;;;;;;4973294;28;20041;-52
2022/07/25 00:51:11;;;;;;;17.83;13.73;;;17.20;99.90;;;;;;4973265;28;20074;-56
2022/07/25 00:53:38;;;;;;;17.73;13.13;;;17.30;99.90;;;;;;4973394;28;20022;-53
2022/07/25 00:56:05;;;;;;;19.88;13.13;;;17.20;99.90;;;;;;4955624;28;20129;-53
2022/07/25 00:58:32;;;;;;;22.23;13.63;;;17.20;99.90;;;;;;4973870;28;20090;-56
2022/07/25 01:00:58;;;;;;;17.15;13.15;;;17.20;99.90;;;;;;4972797;28;20039;-55
2022/07/25 01:03:24;;;;;;;16.27;12.32;;;17.10;99.90;;;;;;4973473;28;20038;-53
2022/07/25 01:05:50;;;;;;;14.77;12.95;;;17.00;99.90;;;;;;4973224;28;20363;-55
2022/07/25 01:08:19;;;;;;;22.17;13.27;;;17.00;99.90;;;;;;4973286;28;20026;-55
2022/07/25 01:10:46;;;;;;;19.35;11.93;;;16.90;99.90;;;;;;4972945;28;20077;-55
2022/07/25 01:13:13;;;;;;;19.38;13.27;;;16.90;99.90;;;;;;4973287;28;20077;-53
2022/07/25 01:15:39;;;;;;;20.30;13.07;;;16.80;99.90;;;;;;4973115;28;20473;-54
2022/07/25 01:18:05;;;;;;;16.05;13.80;;;16.80;99.90;;;;;;4972755;28;20555;-55
2022/07/25 01:20:31;;;;;;;19.05;12.82;;;16.80;99.90;;;;;;4972981;28;20035;-52
2022/07/25 01:22:58;;;;;;;18.17;14.27;;;16.80;99.90;;;;;;4972935;28;20046;-52
2022/07/25 01:25:25;;;;;;;23.20;13.70;;;16.80;99.90;;;;;;4972748;28;20391;-52
2022/07/25 01:27:52;;;;;;;16.33;14.15;;;16.80;99.90;;;;;;4972709;28;20041;-54
2022/07/25 01:30:18;;;;;;;20.25;13.48;;;16.70;99.90;;;;;;4972522;28;20034;-55
2022/07/25 01:32:45;;;;;;;25.70;14.05;;;16.70;99.90;;;;;;4972716;28;20397;-56
2022/07/25 01:35:12;;;;;;;16.25;14.18;;;16.70;99.90;;;;;;4972841;28;20033;-54
2022/07/25 01:37:38;;;;;;;22.00;14.50;;;16.70;99.90;;;;;;4972508;28;20060;-53
2022/07/25 01:40:05;;;;;;;22.40;14.98;;;16.70;99.90;;;;;;4972926;28;20140;-53
2022/07/25 01:42:31;;;;;;;17.60;14.23;;;16.70;99.90;;;;;;4973129;28;20042;-52
2022/07/25 01:44:57;;;;;;;21.00;14.52;;;16.70;99.90;;;;;;4972251;28;20039;-53
2022/07/25 01:47:23;;;;;;;19.92;15.27;;;16.80;99.90;;;;;;4972907;28;20074;-54
2022/07/25 01:49:48;;;;;;;21.17;14.02;;;16.80;99.90;;;;;;4972804;28;20082;-50
2022/07/25 01:52:14;;;;;;;19.15;13.98;;;16.80;99.90;;;;;;4972365;28;20034;-53
2022/07/25 01:54:40;;;;;;;31.92;16.15;;;16.80;99.90;;;;;;4972994;28;20073;-57
2022/07/25 01:57:09;;;;;;;14.85;13.27;;;16.80;99.90;;;;;;4972960;28;20110;-55
2022/07/25 01:59:39;;;;;;;18.88;14.45;;;16.70;99.90;;;;;;4972333;28;20126;-52
2022/07/25 02:02:06;;;;;;;26.98;15.07;;;16.70;99.90;;;;;;4955539;28;20050;-53
2022/07/25 02:04:32;;;;;;;22.70;14.15;;;16.60;99.90;;;;;;4972550;28;20356;-56
2022/07/25 02:06:58;;;;;;;19.17;14.85;;;16.50;99.90;;;;;;4972356;28;20026;-54
2022/07/25 02:09:24;;;;;;;25.38;15.70;;;16.50;99.90;;;;;;4972400;28;20090;-52
2022/07/25 02:11:50;;;;;;;17.77;14.75;;;16.50;99.90;;;;;;4972241;28;20501;-56
2022/07/25 02:14:15;;;;;;;27.00;15.43;;;16.50;99.90;;;;;;4972585;28;20367;-53
2022/07/25 02:16:41;;;;;;;22.00;15.20;;;16.50;99.90;;;;;;4972472;28;20042;-52
2022/07/25 02:19:06;;;;;;;17.83;15.63;;;16.50;99.90;;;;;;4955353;28;20031;-51
2022/07/25 02:21:32;;;;;;;21.52;16.02;;;16.50;99.90;;;;;;4972554;28;20639;-55
2022/07/25 02:24:07;;;;;;;16.42;14.05;;;16.50;99.90;;;;;;4971981;28;20034;-53
2022/07/25 02:26:33;;;;;;;16.35;14.32;;;16.50;99.90;;;;;;4972540;28;20081;-53
2022/07/25 02:28:58;;;;;;;19.17;15.18;;;16.50;99.90;;;;;;4954686;28;20031;-52
2022/07/25 02:31:24;;;;;;;26.50;14.48;;;16.40;99.90;;;;;;4972756;28;20047;-56
2022/07/25 02:33:50;;;;;;;19.23;15.25;;;16.40;99.90;;;;;;4972613;28;20034;-54
2022/07/25 02:36:16;;;;;;;16.52;14.20;;;16.40;99.90;;;;;;4972337;28;20031;-53
2022/07/25 02:38:42;;;;;;;22.33;15.25;;;16.40;99.90;;;;;;4972308;28;20034;-56
2022/07/25 02:41:07;;;;;;;22.67;12.73;;;16.40;99.90;;;;;;4972967;28;20463;-55
2022/07/25 02:43:33;;;;;;;30.75;13.38;;;16.40;99.90;;;;;;4955276;28;20035;-53
2022/07/25 02:45:59;;;;;;;34.67;13.82;;;16.30;99.90;;;;;;4972301;28;20050;-53
2022/07/25 02:48:24;;;;;;;44.10;14.38;;;16.30;99.90;;;;;;4972446;28;20070;-50
2022/07/25 02:50:50;;;;;;;42.53;13.00;;;16.40;99.90;;;;;;4975518;28;20030;-51
2022/07/25 02:53:16;;;;;;;19.67;12.98;;;16.40;99.90;;;;;;4975516;28;20033;-50
2022/07/25 02:55:41;;;;;;;32.30;13.73;;;16.40;99.90;;;;;;4976029;28;20566;-54
2022/07/25 02:58:07;;;;;;;22.73;13.98;;;16.40;99.90;;;;;;4975419;28;20093;-51
2022/07/25 03:00:33;;;;;;;31.98;13.70;;;16.40;99.90;;;;;;4975559;28;20027;-54
2022/07/25 03:02:59;;;;;;;38.75;14.40;;;16.40;99.90;;;;;;4975482;28;20030;-53
2022/07/25 03:05:24;;;;;;;16.80;13.35;;;16.50;99.90;;;;;;4975723;28;20681;-51
2022/07/25 03:07:50;;;;;;;21.38;14.82;;;16.50;99.90;;;;;;4975308;28;20035;-54
2022/07/25 03:10:16;;;;;;;24.85;12.95;;;16.50;99.90;;;;;;4975528;28;20034;-57
2022/07/25 03:12:43;;;;;;;19.25;14.43;;;16.60;99.90;;;;;;4974893;28;20019;-54
2022/07/25 03:15:10;;;;;;;24.63;15.00;;;16.50;99.90;;;;;;4974791;28;20027;-55
2022/07/25 03:17:36;;;;;;;23.45;14.25;;;16.40;99.90;;;;;;4975085;28;20119;-58
2022/07/25 03:20:03;;;;;;;32.72;15.52;;;16.40;99.90;;;;;;4973201;28;20453;-56
2022/07/25 03:22:29;;;;;;;21.25;14.65;;;16.30;99.90;;;;;;4973024;28;20038;-55
2022/07/25 03:24:55;;;;;;;24.65;14.57;;;16.30;99.90;;;;;;4972618;28;20525;-56
2022/07/25 03:27:21;;;;;;;27.85;14.10;;;16.20;99.90;;;;;;4973924;28;20271;-56
2022/07/25 03:29:46;;;;;;;48.92;15.55;;;16.20;99.90;;;;;;4972773;28;20033;-56
2022/07/25 03:32:12;;;;;;;15.60;13.55;;;16.30;99.90;;;;;;4973627;28;20034;-57
2022/07/25 03:34:38;;;;;;;26.52;14.63;;;16.30;99.90;;;;;;4977204;28;20047;-55
2022/07/25 03:37:04;;;;;;;19.92;15.10;;;16.30;99.90;;;;;;4972165;28;20386;-57
2022/07/25 03:39:31;;;;;;;26.83;14.15;;;16.30;99.90;;;;;;4972381;28;20411;-57
2022/07/25 03:41:57;;;;;;;22.10;15.10;;;16.30;99.90;;;;;;4971154;28;20255;-54
2022/07/25 03:44:25;;;;;;;33.63;12.73;;;16.40;99.90;;;;;;4952814;28;20214;-52
2022/07/25 03:46:51;;;;;;;19.90;13.52;;;16.40;99.90;;;;;;4965864;28;20102;-57
2022/07/25 03:49:17;;;;;;;21.83;14.73;;;16.30;99.90;;;;;;4970380;28;20118;-56
2022/07/25 03:51:43;;;;;;;16.73;13.32;;;16.30;99.90;;;;;;4971547;28;20086;-55
2022/07/25 03:54:12;;;;;;;18.42;12.55;;;16.30;99.90;;;;;;4954470;28;20031;-56
2022/07/25 03:56:40;;;;;;;18.10;13.07;;;16.40;99.90;;;;;;4973137;28;20057;-52
2022/07/25 03:59:07;;;;;;;20.65;13.20;;;16.30;99.90;;;;;;4973021;28;20035;-56
2022/07/25 04:01:34;;;;;;;24.80;14.15;;;16.30;99.90;;;;;;4973741;28;20043;-54
2022/07/25 04:04:00;;;;;;;19.60;13.75;;;16.20;99.90;;;;;;4973269;28;20058;-54
2022/07/25 04:06:27;;;;;;;22.02;13.65;;;16.30;99.90;;;;;;4973436;28;20483;-53
2022/07/25 04:08:53;;;;;;;18.70;13.35;;;16.30;99.90;;;;;;4972877;28;20759;-52
2022/07/25 04:11:18;;;;;;;15.65;13.00;;;16.30;99.90;;;;;;4973104;28;20035;-54
2022/07/25 04:13:44;;;;;;;26.95;14.18;;;16.30;99.90;;;;;;4973209;28;20057;-54
2022/07/25 04:16:11;;;;;;;27.50;15.18;;;16.30;99.90;;;;;;4973581;28;20085;-54
2022/07/25 04:18:36;;;;;;;20.80;13.32;;;16.30;99.90;;;;;;4972717;28;20018;-54
2022/07/25 04:21:03;;;;;;;16.52;14.48;;;16.50;99.90;;;;;;4972775;28;20042;-54
2022/07/25 04:23:29;;;;;;;17.52;12.63;;;16.60;99.90;;;;;;4973028;28;20037;-51
2022/07/25 04:25:55;;;;;;;17.65;13.35;;;16.60;99.90;;;;;;4971908;28;20386;-51
2022/07/25 04:28:21;;;;;;;24.52;13.68;;;16.80;99.90;;;;;;4972460;28;20034;-52
2022/07/25 04:30:47;;;;;;;18.23;13.65;;;16.70;99.90;;;;;;4971439;28;20057;-55
2022/07/25 04:33:13;;;;;;;18.85;14.48;;;16.80;99.90;;;;;;4972609;28;20058;-52
2022/07/25 04:35:39;;;;;;;22.42;14.18;;;16.80;99.90;;;;;;4972685;28;20053;-57
2022/07/25 04:38:05;;;;;;;16.58;14.00;;;16.90;99.90;;;;;;4973850;28;20050;-55
2022/07/25 04:40:31;;;;;;;15.50;13.85;;;17.00;99.90;;;;;;4974022;28;20035;-56
2022/07/25 04:42:56;;;;;;;19.80;12.82;;;17.10;99.90;;;;;;4973761;28;20022;-55
2022/07/25 04:45:22;;;;;;;14.57;13.05;;;17.20;99.90;;;;;;4973766;28;20074;-56
2022/07/25 04:47:48;;;;;;;19.75;13.70;;;17.30;99.90;;;;;;4965404;28;20026;-56
2022/07/25 04:50:14;;;;;;;22.90;14.77;;;17.50;99.90;;;;;;4973544;28;20035;-55
2022/07/25 04:52:40;;;;;;;17.77;14.15;;;17.60;99.90;;;;;;4954769;28;20084;-54
2022/07/25 04:55:06;;;;;;;20.38;13.60;;;17.70;99.90;;;;;;4973466;28;20429;-56
2022/07/25 04:57:32;;;;;;;14.93;13.38;;;17.70;99.90;;;;;;4955665;28;20770;-55
2022/07/25 04:59:57;;;;;;;17.58;14.10;;;17.80;99.90;;;;;;4972947;28;20085;-55
2022/07/25 05:02:24;;;;;;;16.10;14.02;;;17.80;99.90;;;;;;4973367;28;20026;-56
2022/07/25 05:04:50;;;;;;;16.52;13.05;;;17.80;99.90;;;;;;4972880;28;20026;-55
2022/07/25 05:07:16;;;;;;;15.52;13.77;;;17.90;99.90;;;;;;4972892;28;20027;-55
2022/07/25 05:09:42;;;;;;;19.58;13.75;;;18.00;99.90;;;;;;4973324;28;20370;-56
2022/07/25 05:12:08;;;;;;;16.73;14.00;;;18.00;99.90;;;;;;4972105;28;20114;-55
2022/07/25 05:14:34;;;;;;;20.10;13.45;;;18.00;99.90;;;;;;4972939;28;20026;-53
2022/07/25 05:17:00;;;;;;;20.13;14.02;;;18.10;99.90;;;;;;4972931;28;20066;-58
2022/07/25 05:19:25;;;;;;;15.15;13.38;;;18.20;99.90;;;;;;4972790;28;20034;-57
2022/07/25 05:21:51;;;;;;;13.98;12.35;;;18.40;99.90;;;;;;4972830;28;20109;-57
2022/07/25 05:24:17;;;;;;;13.82;12.43;;;18.60;99.90;;;;;;4972934;28;20030;-55
2022/07/25 05:30:52;;;;;;;16.05;12.50;;;19.00;99.90;;;;;;4971452;28;20101;-57
2022/07/25 05:33:17;;;;;;;16.92;12.85;;;19.30;99.90;;;;;;4972572;28;20031;-55
2022/07/25 05:38:18;;;;;;;15.88;13.35;;;19.60;99.90;;;;;;5243218;23;20057;-57
2022/07/25 05:41:05;;;;;;;19.17;13.82;;;19.70;99.90;;;;;;5009829;28;20041;-55
2022/07/25 05:54:24;;;;;;;14.32;12.85;;;20.40;99.90;;;;;;4969988;28;20117;-55
2022/07/25 05:56:50;;;;;;;14.85;13.27;;;20.50;99.90;;;;;;4971681;28;20068;-55
2022/07/25 05:59:16;;;;;;;20.38;14.98;;;20.60;99.90;;;;;;4972123;28;20482;-58
2022/07/25 06:01:41;;;;;;;14.57;13.15;;;20.70;99.90;;;;;;4971488;28;20038;-56
2022/07/25 06:04:07;;;;;;;14.40;12.93;;;20.70;99.90;;;;;;4970995;28;20035;-57
2022/07/25 06:06:33;;;;;;;13.88;12.48;;;20.80;99.90;;;;;;4972105;28;20109;-55
2022/07/25 06:08:58;;;;;;;14.07;12.57;;;20.90;99.90;;;;;;4972358;28;20042;-58
2022/07/25 06:11:27;;;;;;;18.42;13.18;;;21.10;99.90;;;;;;4972750;28;20438;-57
2022/07/25 06:13:53;;;;;;;14.75;11.85;;;21.10;99.90;;;;;;4972203;28;20038;-54
2022/07/25 06:16:19;;;;;;;17.73;12.20;;;21.20;99.90;;;;;;4971329;28;20034;-58
2022/07/25 06:18:44;;;;;;;16.95;12.93;;;21.40;99.90;;;;;;4972169;28;20110;-54
2022/07/25 06:21:10;;;;;;;16.73;13.50;;;21.40;99.90;;;;;;4972378;28;20459;-56
2022/07/25 06:23:36;;;;;;;17.05;11.93;;;21.50;99.90;;;;;;4974781;28;20110;-58
2022/07/25 06:26:02;;;;;;;26.88;13.63;;;21.70;99.90;;;;;;4976036;28;20030;-55
2022/07/25 06:28:27;;;;;;;18.33;14.25;;;21.70;99.90;;;;;;4976027;28;20465;-56
2022/07/25 06:30:53;;;;;;;16.08;12.55;;;21.80;99.90;;;;;;4976074;28;20054;-57
2022/07/25 06:33:19;;;;;;;20.10;11.73;;;21.90;99.90;;;;;;4975994;28;20075;-58
2022/07/25 06:35:44;;;;;;;18.13;12.75;;;22.10;99.90;;;;;;4976074;28;20481;-58
2022/07/25 06:38:10;;;;;;;14.98;12.68;;;22.10;99.90;;;;;;4975946;28;20022;-53
2022/07/25 06:40:36;;;;;;;22.40;11.63;;;22.10;99.90;;;;;;4976046;28;20489;-56
2022/07/25 06:43:02;;;;;;;21.08;13.70;;;22.10;99.90;;;;;;4975860;28;20051;-55
2022/07/25 06:45:28;;;;;;;16.35;13.73;;;22.20;99.90;;;;;;4976070;28;20042;-59
2022/07/25 06:47:53;;;;;;;13.73;12.32;;;22.20;99.90;;;;;;4975739;28;20035;-58
2022/07/25 06:50:19;;;;;;;15.88;13.45;;;22.20;99.90;;;;;;4975598;28;20054;-57
2022/07/25 06:52:45;;;;;;;14.38;12.88;;;22.20;99.90;;;;;;4975273;28;20045;-58
2022/07/25 06:55:12;;;;;;;13.20;11.82;;;22.40;99.90;;;;;;4975743;28;20093;-59
2022/07/25 06:57:42;;;;;;;17.10;11.98;;;22.60;99.90;;;;;;4974260;28;20652;-54
2022/07/25 07:00:10;;;;;;;17.85;12.75;;;22.60;99.90;;;;;;4975837;28;20716;-53
2022/07/25 07:02:51;;;;;;;14.95;12.23;;;22.80;99.90;;;;;;4975596;28;20485;-54
2022/07/25 07:05:17;;;;;;;16.23;13.13;;;22.80;99.90;;;;;;4975670;28;20086;-56
2022/07/25 07:07:43;;;;;;;14.30;12.80;;;22.90;99.90;;;;;;4959497;28;20501;-58
2022/07/25 07:10:08;;;;;;;18.00;13.23;;;23.00;99.90;;;;;;4975455;28;20058;-55
2022/07/25 07:12:34;;;;;;;13.75;12.15;;;23.10;99.90;;;;;;4975604;28;20023;-56
2022/07/25 07:15:00;;;;;;;19.30;12.15;;;23.10;99.90;;;;;;4975356;28;20023;-58
2022/07/25 07:17:26;;;;;;;18.02;13.05;;;23.30;99.90;;;;;;4974992;28;20031;-58
2022/07/25 07:19:51;;;;;;;18.00;12.32;;;23.40;99.90;;;;;;4975671;28;20034;-56
2022/07/25 07:22:17;;;;;;;14.75;11.98;;;23.50;99.90;;;;;;4974427;28;20397;-56
2022/07/25 07:24:43;;;;;;;16.15;12.50;;;23.50;99.90;;;;;;4974985;28;20090;-56
2022/07/25 07:27:08;;;;;;;23.88;13.10;;;23.70;99.90;;;;;;4975159;28;20026;-57
2022/07/25 07:29:34;;;;;;;14.88;13.15;;;23.80;99.90;;;;;;4986483;28;20168;-56
2022/07/25 07:32:00;;;;;;;17.38;13.60;;;24.00;99.90;;;;;;4994353;28;20058;-56
2022/07/25 07:34:25;;;;;;;14.50;12.07;;;24.10;99.90;;;;;;4974684;28;20433;-56
2022/07/25 07:36:51;;;;;;;15.38;12.85;;;24.10;99.90;;;;;;4975139;28;20027;-57
2022/07/25 07:39:17;;;;;;;19.15;13.63;;;24.10;99.90;;;;;;4974918;28;20015;-55
2022/07/25 07:41:43;;;;;;;13.20;11.80;;;24.10;99.90;;;;;;4975072;28;20027;-58
2022/07/25 07:44:09;;;;;;;30.70;13.45;;;24.20;99.90;;;;;;4975327;28;20462;-56
2022/07/25 07:46:34;;;;;;;15.95;11.88;;;24.10;99.90;;;;;;4975021;28;20041;-55
2022/07/25 07:49:00;;;;;;;14.98;12.05;;;24.30;99.90;;;;;;4974691;28;20455;-55
2022/07/25 07:51:26;;;;;;;13.60;10.40;;;24.50;99.90;;;;;;4974543;28;20367;-58
2022/07/25 07:56:35;;;;;;;17.08;11.98;;;24.60;99.90;;;;;;4974827;28;20033;-58
2022/07/25 07:59:01;;;;;;;12.48;11.27;;;24.60;99.90;;;;;;4974230;28;20030;-56
2022/07/25 08:01:27;;;;;;;17.67;12.27;;;24.50;99.90;;;;;;4974557;28;20039;-54
2022/07/25 08:03:52;;;;;;;14.43;10.80;;;24.70;99.90;;;;;;4974287;28;20038;-58
2022/07/25 08:06:18;;;;;;;18.20;11.23;;;24.90;99.90;;;;;;4974463;28;20039;-55
2022/07/25 08:08:44;;;;;;;12.75;11.43;;;24.80;99.90;;;;;;4974257;28;20030;-58
2022/07/25 08:11:09;;;;;;;12.52;11.18;;;24.90;99.90;;;;;;4974621;28;20070;-57
2022/07/25 08:13:36;;;;;;;12.65;11.35;;;24.90;99.90;;;;;;4974229;28;20133;-54
2022/07/25 08:16:03;;;;;;;14.05;10.95;;;25.10;99.90;;;;;;4974446;28;20367;-58
2022/07/25 08:18:31;;;;;;;16.52;10.40;;;25.40;99.90;;;;;;4974098;28;20458;-56
2022/07/25 08:20:59;;;;;;;12.50;10.23;;;25.40;99.90;;;;;;4974229;28;20115;-58
2022/07/25 08:23:26;;;;;;;14.30;9.82;;;25.50;99.90;;;;;;4973695;28;20121;-52
2022/07/25 08:25:53;;;;;;;14.15;11.00;;;25.60;99.90;;;;;;4974198;28;20031;-53
2022/07/25 08:28:19;;;;;;;15.50;11.27;;;25.70;99.90;;;;;;4974728;28;20023;-57
2022/07/25 08:30:44;;;;;;;15.90;11.25;;;26.00;99.90;;;;;;4967125;28;20110;-57
2022/07/25 08:33:14;;;;;;;14.70;11.40;;;25.90;99.90;;;;;;4967761;28;20030;-56
2022/07/25 08:35:48;;;;;;;13.95;10.93;;;26.00;99.90;;;;;;4969356;28;20031;-54
2022/07/25 08:38:14;;;;;;;17.27;12.00;;;26.00;99.90;;;;;;4973834;28;20031;-58
2022/07/25 08:40:40;;;;;;;15.88;12.00;;;25.90;99.70;;;;;;4965744;28;20035;-56
2022/07/25 08:43:14;;;;;;;15.18;11.93;;;26.10;99.90;;;;;;4970037;28;20059;-53
2022/07/25 08:45:52;;;;;;;13.82;11.32;;;26.40;99.90;;;;;;4969681;28;20059;-56
2022/07/25 08:48:22;;;;;;;12.02;10.73;;;26.60;99.90;;;;;;4970762;28;20058;-59
2022/07/25 08:50:49;;;;;;;13.57;11.77;;;26.80;99.90;;;;;;4969870;28;20049;-57
2022/07/25 08:53:18;;;;;;;15.63;11.13;;;26.70;99.70;;;;;;4971594;28;20035;-54
2022/07/25 08:55:44;;;;;;;13.70;11.93;;;27.00;99.90;;;;;;4973297;28;20031;-58
2022/07/25 08:58:11;;;;;;;14.50;11.57;;;26.90;98.80;;;;;;4967679;28;20035;-57
2022/07/25 09:00:37;;;;;;;14.07;11.98;;;26.70;99.50;;;;;;4957698;28;20610;-56
2022/07/25 09:03:05;;;;;;;16.98;11.55;;;26.70;98.60;;;;;;4973270;28;20104;-54
2022/07/25 09:05:31;;;;;;;14.38;10.63;;;26.80;98.60;;;;;;4973356;28;20035;-55
2022/07/25 09:08:18;;;;;;;12.68;11.35;;;27.10;98.70;;;;;;4973201;28;20113;-56
2022/07/25 09:10:49;;;;;;;12.30;10.65;;;27.40;99.90;;;;;;4972750;28;20062;-57
2022/07/25 09:13:15;;;;;;;17.27;11.40;;;27.60;98.30;;;;;;4973417;28;20034;-58
2022/07/25 09:15:44;;;;;;;13.38;10.82;;;27.70;98.10;;;;;;4972904;28;20026;-58
2022/07/25 09:18:12;;;;;;;15.00;10.40;;;27.90;99.30;;;;;;4972747;28;20109;-56
2022/07/25 09:20:42;;;;;;;13.38;12.07;;;28.20;98.30;;;;;;4972862;28;20446;-55
2022/07/25 09:23:08;;;;;;;17.60;13.27;;;28.30;97.80;;;;;;4972127;28;20066;-54
2022/07/25 09:25:35;;;;;;;17.33;11.52;;;28.30;97.30;;;;;;4972861;28;20125;-54
2022/07/25 09:28:14;;;;;;;13.70;11.05;;;28.40;98.40;;;;;;4971144;28;20050;-54
2022/07/25 09:30:51;;;;;;;13.95;12.25;;;28.50;99.70;;;;;;4972034;28;20692;-57
2022/07/25 09:33:16;;;;;;;11.95;10.48;;;28.50;97.30;;;;;;4972369;28;20114;-55
2022/07/25 09:35:42;;;;;;;12.00;10.07;;;28.90;98.00;;;;;;4972703;28;20619;-55
2022/07/25 09:38:13;;;;;;;14.35;11.35;;;29.00;97.90;;;;;;4973107;28;20413;-56
2022/07/25 09:40:40;;;;;;;11.95;10.63;;;29.00;96.60;;;;;;4972089;28;20466;-57
2022/07/25 09:43:06;;;;;;;15.15;11.73;;;29.00;95.90;;;;;;4972880;28;20066;-54
2022/07/25 09:45:32;;;;;;;27.92;12.18;;;29.50;96.80;;;;;;4972559;28;20778;-56
2022/07/25 09:48:07;;;;;;;17.98;11.77;;;29.30;96.50;;;;;;4972788;28;20027;-52
2022/07/25 09:50:33;;;;;;;24.67;11.73;;;29.50;95.90;;;;;;4972565;28;20027;-51
2022/07/25 09:53:01;;;;;;;12.00;10.52;;;29.60;96.20;;;;;;4970927;28;20093;-56
2022/07/25 09:55:28;;;;;;;14.85;10.50;;;29.90;95.80;;;;;;4972626;28;20058;-55
2022/07/25 09:57:53;;;;;;;41.63;13.50;;;30.30;94.70;;;;;;4970594;28;20475;-58
2022/07/25 10:00:25;;;;;;;20.95;12.07;;;30.30;94.50;;;;;;4972385;28;20045;-54
2022/07/25 10:02:53;;;;;;;12.43;10.50;;;29.90;95.00;;;;;;4972512;28;20050;-52
2022/07/25 10:05:28;;;;;;;12.13;10.90;;;29.90;95.20;;;;;;4972179;28;20034;-54
2022/07/25 10:07:55;;;;;;;11.45;10.13;;;29.70;94.40;;;;;;4972382;28;20101;-57
2022/07/25 10:10:30;;;;;;;11.65;10.60;;;29.90;95.30;;;;;;4972546;28;20533;-56
2022/07/25 10:13:09;;;;;;;14.80;12.00;;;30.20;94.60;;;;;;4970893;28;20497;-54
2022/07/25 10:15:45;;;;;;;13.93;10.45;;;30.40;94.80;;;;;;4972630;28;20051;-55
2022/07/25 10:18:12;;;;;;;14.38;10.68;;;30.40;94.40;;;;;;4972229;28;20105;-55
2022/07/25 10:20:38;;;;;;;15.02;10.30;;;30.50;93.50;;;;;;4959281;28;20031;-58
2022/07/25 10:23:04;;;;;;;14.65;11.27;;;30.90;93.50;;;;;;4950769;28;20069;-55
2022/07/25 10:25:29;;;;;;;24.20;10.95;;;31.40;94.20;;;;;;4944913;28;20035;-58
2022/07/25 10:28:07;;;;;;;11.95;9.75;;;31.00;93.40;;;;;;4948138;28;20485;-53
2022/07/25 10:30:34;;;;;;;10.18;9.27;;;31.20;92.90;;;;;;4950274;28;20395;-57
2022/07/25 10:33:03;;;;;;;15.35;11.23;;;31.40;92.80;;;;;;4950623;28;20046;-56
2022/07/25 10:35:29;;;;;;;10.98;9.30;;;31.70;94.40;;;;;;4946520;28;20110;-58
2022/07/25 10:37:57;;;;;;;16.13;9.90;;;31.70;92.10;;;;;;4944894;28;20081;-55
2022/07/25 10:40:37;;;;;;;13.98;9.05;;;31.90;92.10;;;;;;4942734;28;20042;-56
2022/07/25 10:43:16;;;;;;;12.48;9.32;;;32.10;93.10;;;;;;4945465;28;20039;-58
2022/07/25 10:45:52;;;;;;;11.00;9.73;;;32.20;92.00;;;;;;4941902;28;20039;-58
2022/07/25 10:48:25;;;;;;;15.13;9.48;;;32.60;90.00;;;;;;4943203;28;20028;-58
2022/07/25 10:51:05;;;;;;;12.77;9.98;;;32.60;91.30;;;;;;4942989;28;20374;-54
2022/07/25 10:53:43;;;;;;;10.23;9.32;;;32.80;90.90;;;;;;4944162;28;20054;-56
2022/07/25 10:56:24;;;;;;;13.57;9.55;;;33.10;86.40;;;;;;4941814;28;20027;-57
2022/07/25 10:58:56;;;;;;;15.32;9.65;;;32.50;87.50;;;;;;4943797;28;20464;-55
2022/07/25 11:01:27;;;;;;;11.25;9.93;;;32.60;88.50;;;;;;4943149;28;20042;-53
2022/07/25 11:03:58;;;;;;;14.52;10.10;;;32.90;90.30;;;;;;4942747;28;20035;-53
2022/07/25 11:06:35;;;;;;;18.88;10.73;;;32.80;86.10;;;;;;4942908;28;20240;-58
2022/07/25 11:09:20;;;;;;;11.40;9.45;;;32.50;87.00;;;;;;4944500;28;20360;-55
2022/07/25 11:11:49;;;;;;;12.73;10.02;;;33.10;87.90;;;;;;4941663;28;20047;-58
2022/07/25 11:14:24;;;;;;;23.80;11.40;;;33.60;87.00;;;;;;4946871;28;20894;-58
2022/07/25 11:16:53;;;;;;;10.77;9.80;;;33.60;86.50;;;;;;4946449;28;20086;-56
2022/07/25 11:19:23;;;;;;;11.57;10.48;;;33.80;83.10;;;;;;4946666;28;20058;-55
2022/07/25 11:21:52;;;;;;;11.55;9.00;;;34.30;79.30;;;;;;4945635;28;20487;-58
2022/07/25 11:24:18;;;;;;;15.18;10.38;;;34.20;82.70;;;;;;4946163;28;20033;-55
2022/07/25 11:26:48;;;;;;;13.68;9.82;;;34.20;83.00;;;;;;4946449;28;20031;-58
2022/07/25 11:29:26;;;;;;;12.00;9.50;;;34.30;78.10;;;;;;4947223;28;20070;-53
2022/07/25 11:32:03;;;;;;;10.52;9.52;;;34.20;76.60;;;;;;4945209;28;20035;-58
2022/07/25 11:34:32;;;;;;;16.35;10.10;;;34.00;78.50;;;;;;4945179;28;20054;-58
2022/07/25 11:37:01;;;;;;;16.17;10.52;;;34.40;80.30;;;;;;4945409;28;20031;-57
2022/07/25 11:39:29;;;;;;;10.10;9.10;;;34.50;82.90;;;;;;4945763;28;20121;-55
2022/07/25 11:42:09;;;;;;;11.07;9.93;;;34.70;80.90;;;;;;4945775;28;20036;-55
2022/07/25 11:44:39;;;;;;;15.80;10.68;;;34.80;76.10;;;;;;4946141;28;20515;-57
2022/07/25 11:47:07;;;;;;;11.10;10.00;;;34.60;74.90;;;;;;4959968;28;20063;-55
2022/07/25 11:49:47;;;;;;;21.63;11.48;;;35.00;78.80;;;;;;4943567;28;20117;-54
2022/07/25 11:52:22;;;;;;;12.05;10.88;;;34.80;75.30;;;;;;4955279;28;20027;-56
2022/07/25 11:55:04;;;;;;;16.45;9.75;;;34.70;74.10;;;;;;4974479;28;20034;-58
2022/07/25 11:57:33;;;;;;;33.75;10.20;;;34.90;75.20;;;;;;4974335;28;20461;-57
2022/07/25 12:00:01;;;;;;;11.70;8.93;;;35.00;74.90;;;;;;4973380;28;20031;-57
2022/07/25 12:02:33;;;;;;;20.02;9.25;;;35.30;78.80;;;;;;4974504;28;20023;-55
2022/07/25 12:05:05;;;;;;;10.13;9.05;;;35.30;74.20;;;;;;4974245;28;20031;-55
2022/07/25 12:07:38;;;;;;;10.63;8.43;;;36.10;76.80;;;;;;4973187;28;20042;-55
2022/07/25 12:10:05;;;;;;;;;;;36.50;73.00;;;;;;4975223;28;20038;-57
2022/07/25 12:12:43;;;;;;;8.75;7.82;;;37.30;65.40;;;;;;4974371;28;20017;-54
2022/07/25 12:15:11;;;;;;;14.27;7.25;;;37.70;67.00;;;;;;4974173;28;20027;-54
2022/07/25 12:17:37;;;;;;;10.25;6.50;;;37.40;62.70;;;;;;4974196;28;20859;-59
2022/07/25 12:20:04;;;;;;;10.02;6.32;;;37.60;60.60;;;;;;4974073;28;20114;-59
2022/07/25 12:22:29;;;;;;;6.72;5.80;;;38.30;58.40;;;;;;4974210;28;20046;-56
2022/07/25 12:24:55;;;;;;;8.05;5.93;;;38.40;54.10;;;;;;4973988;28;20655;-52
2022/07/25 12:27:21;;;;;;;7.32;6.00;;;38.20;57.30;;;;;;4974490;28;20454;-57
2022/07/25 12:29:47;;;;;;;7.78;6.47;;;39.30;54.80;;;;;;4973934;28;20109;-53
2022/07/25 12:32:12;;;;;;;7.03;5.55;;;38.20;52.40;;;;;;4973823;28;20125;-58
2022/07/25 12:34:38;;;;;;;7.95;5.00;;;39.80;56.30;;;;;;4974503;28;20030;-55
2022/07/25 12:37:05;;;;;;;8.57;5.55;;;39.60;53.20;;;;;;4973875;28;20085;-57
2022/07/25 12:39:30;;;;;;;8.23;5.00;;;40.10;49.30;;;;;;4974138;28;20041;-53
2022/07/25 12:41:56;;;;;;;5.68;4.90;;;41.00;50.00;;;;;;4973400;28;20489;-55
2022/07/25 12:44:22;;;;;;;5.75;5.05;;;41.00;46.20;;;;;;4972512;28;20382;-56
2022/07/25 12:46:48;;;;;;;17.42;4.85;;;40.90;50.60;;;;;;4973319;28;20031;-52
2022/07/25 12:49:14;;;;;;;11.30;5.20;;;40.50;47.90;;;;;;4973780;28;20031;-47